Time;durP1;ratioP1;P1;durP2;ratioP2;P2;SDS_P1;SDS_P2;PMS_P1;PMS_P2;Temp;Humidity;BMP_temperature;BMP_pressure;BME280_temperature;BME280_humidity;BME280_pressure;Samples;Min_cycle;Max_cycle;Signal;HPM_P1;HPM_P2
2022/07/20 00:01:38;;;;;;;0.00;0.00;;;;;;;26.40;100.00;101475.78;2616137;54;20141;-67
2022/07/20 00:04:11;;;;;;;0.00;0.00;;;;;;;26.31;100.00;101477.66;2616125;54;20173;-67
2022/07/20 00:06:41;;;;;;;0.00;0.00;;;;;;;26.08;100.00;101472.25;2616172;47;20145;-67
2022/07/20 00:11:54;;;;;;;0.00;0.00;;;;;;;25.88;100.00;101473.69;2616128;54;20142;-66
2022/07/20 00:14:24;;;;;;;0.00;0.00;;;;;;;25.77;100.00;101475.91;2616193;54;20152;-66
2022/07/20 00:16:54;;;;;;;0.00;0.00;;;;;;;25.31;100.00;101462.41;2616151;54;20145;-66
2022/07/20 00:19:27;;;;;;;0.00;0.00;;;;;;;25.15;100.00;101468.56;2616191;54;20149;-66
2022/07/20 00:21:57;;;;;;;0.00;0.00;;;;;;;25.81;100.00;101471.88;2616041;54;20142;-67
2022/07/20 00:24:28;;;;;;;0.00;0.00;;;;;;;25.93;100.00;101471.34;2616018;54;20518;-67
2022/07/20 00:26:58;;;;;;;0.00;0.00;;;;;;;26.09;100.00;101465.09;2616026;54;20157;-66
2022/07/20 00:29:28;;;;;;;0.38;0.38;;;;;;;26.07;100.00;101460.00;2615961;54;20154;-66
2022/07/20 00:31:58;;;;;;;0.00;0.00;;;;;;;26.34;100.00;101465.84;2616080;54;20154;-66
2022/07/20 00:34:31;;;;;;;0.00;0.00;;;;;;;26.11;100.00;101463.13;2617740;54;20171;-66
2022/07/20 00:37:01;;;;;;;0.00;0.00;;;;;;;26.11;100.00;101468.44;2618408;54;20145;-67
2022/07/20 00:39:32;;;;;;;1.17;1.17;;;;;;;26.33;100.00;101457.03;2616587;54;20254;-67
2022/07/20 00:42:02;;;;;;;0.20;0.20;;;;;;;26.23;100.00;101463.59;2616387;39;20545;-67
2022/07/20 00:44:32;;;;;;;2.63;1.00;;;;;;;26.33;100.00;101457.03;2615855;54;20208;-66
2022/07/20 00:47:02;;;;;;;0.00;0.00;;;;;;;26.50;100.00;101461.22;2616074;54;20145;-67
2022/07/20 00:49:35;;;;;;;0.10;0.10;;;;;;;26.39;100.00;101466.97;2616958;54;20661;-67
2022/07/20 00:52:06;;;;;;;0.00;0.00;;;;;;;25.81;100.00;101464.75;2617066;54;20142;-66
2022/07/20 00:54:37;;;;;;;0.00;0.00;;;;;;;25.83;100.00;101472.56;2616708;54;20146;-67
2022/07/20 00:57:07;;;;;;;0.00;0.00;;;;;;;25.76;100.00;101466.28;2616823;54;20148;-67
2022/07/20 00:59:37;;;;;;;0.00;0.00;;;;;;;25.81;100.00;101470.06;2617611;54;20146;-67
2022/07/20 01:02:07;;;;;;;0.00;0.00;;;;;;;26.27;100.00;101468.38;2617134;54;20665;-66
2022/07/20 01:04:41;;;;;;;0.00;0.00;;;;;;;26.04;100.00;101459.47;2617077;54;20152;-66
2022/07/20 01:07:11;;;;;;;0.00;0.00;;;;;;;25.99;100.00;101460.03;2616945;54;20145;-66
2022/07/20 01:09:41;;;;;;;0.03;0.03;;;;;;;26.16;100.00;101459.94;2616827;54;20157;-66
2022/07/20 01:12:12;;;;;;;0.00;0.00;;;;;;;25.93;100.00;101458.03;2616856;54;20142;-66
2022/07/20 01:14:42;;;;;;;0.00;0.00;;;;;;;26.32;100.00;101447.38;2617157;39;20212;-66
2022/07/20 01:17:13;;;;;;;0.00;0.00;;;;;;;25.98;100.00;101449.56;2616994;54;20138;-66
2022/07/20 01:19:46;;;;;;;0.00;0.00;;;;;;;25.65;100.00;101448.84;2617226;39;20535;-66
2022/07/20 01:22:19;;;;;;;0.00;0.00;;;;;;;25.61;100.00;101445.72;2616774;54;20700;-66
2022/07/20 01:24:49;;;;;;;0.00;0.00;;;;;;;25.81;100.00;101442.66;2616822;54;20152;-66
2022/07/20 01:27:19;;;;;;;0.00;0.00;;;;;;;25.78;100.00;101440.34;2617349;39;20558;-66
2022/07/20 01:29:50;;;;;;;0.10;0.10;;;;;;;25.89;100.00;101442.59;2617067;54;20681;-66
2022/07/20 01:32:20;;;;;;;0.10;0.10;;;;;;;25.94;100.00;101434.94;2617172;54;20141;-66
2022/07/20 01:34:50;;;;;;;0.20;0.20;;;;;;;25.85;100.00;101436.81;2617112;54;20152;-66
2022/07/20 01:37:23;;;;;;;0.55;0.55;;;;;;;26.16;100.00;101428.00;2617102;54;20152;-67
2022/07/20 01:39:54;;;;;;;0.00;0.00;;;;;;;26.11;100.00;101444.50;2616942;54;20175;-67
2022/07/20 01:42:24;;;;;;;0.00;0.00;;;;;;;25.24;100.00;101441.97;2617097;54;20171;-67
2022/07/20 01:44:54;;;;;;;0.00;0.00;;;;;;;25.22;100.00;101438.66;2616782;54;20209;-67
